createdAt,value
2022-08-30T00:00:09.858Z,4.25
2022-08-30T00:02:43.642Z,4.75
2022-08-30T00:05:33.233Z,4.50
2022-08-30T00:08:05.734Z,4.40
2022-08-30T00:10:49.089Z,4.15
2022-08-30T00:13:21.618Z,4.28
2022-08-30T00:16:12.268Z,4.72
2022-08-30T00:18:46.901Z,4.25
2022-08-30T00:21:16.783Z,4.07
2022-08-30T00:26:14.670Z,3.97
2022-08-30T00:28:44.510Z,4.65
2022-08-30T00:31:17.010Z,4.75
2022-08-30T00:33:46.645Z,4.85
2022-08-30T00:39:01.132Z,4.60
2022-08-30T00:41:35.632Z,4.72
2022-08-30T00:47:24.123Z,4.63
2022-08-30T00:50:01.315Z,4.55
2022-08-30T00:53:03.006Z,5.03
2022-08-30T00:55:39.102Z,5.65
2022-08-30T00:58:34.167Z,6.13
2022-08-30T01:01:26.287Z,5.15
2022-08-30T01:04:23.689Z,5.47
2022-08-30T01:07:01.667Z,5.72
2022-08-30T01:10:17.779Z,5.63
2022-08-30T01:12:57.209Z,5.30
2022-08-30T01:15:38.446Z,5.13
2022-08-30T01:18:11.520Z,6.22
2022-08-30T01:21:27.404Z,5.43
2022-08-30T01:23:58.471Z,5.72
2022-08-30T01:26:43.061Z,6.15
2022-08-30T01:29:13.818Z,6.25
2022-08-30T01:31:40.506Z,6.32
2022-08-30T01:34:29.382Z,6.55
2022-08-30T01:37:14.698Z,6.38
2022-08-30T01:39:46.342Z,6.50
2022-08-30T01:42:20.287Z,6.95
2022-08-30T01:44:57.571Z,6.18
2022-08-30T01:47:38.501Z,6.63
2022-08-30T01:50:22.320Z,6.05
2022-08-30T01:52:51.028Z,6.50
2022-08-30T01:55:23.931Z,6.65
2022-08-30T01:57:53.267Z,7.63
2022-08-30T02:00:42.242Z,7.30
2022-08-30T02:03:13.350Z,6.78
2022-08-30T02:06:10.977Z,6.65
2022-08-30T02:09:04.322Z,6.97
2022-08-30T02:11:58.712Z,7.25
2022-08-30T02:17:01.631Z,6.57
2022-08-30T02:19:43.396Z,6.57
2022-08-30T02:22:30.537Z,7.60
2022-08-30T02:25:22.206Z,7.20
2022-08-30T02:27:55.458Z,7.25
2022-08-30T02:30:41.967Z,8.13
2022-08-30T02:33:20.931Z,7.10
2022-08-30T02:35:55.843Z,6.90
2022-08-30T02:38:23.856Z,8.23
2022-08-30T02:40:58.778Z,7.55
2022-08-30T02:43:32.334Z,7.85
2022-08-30T02:46:10.614Z,7.80
2022-08-30T02:48:58.626Z,7.47
2022-08-30T02:52:04.715Z,7.50
2022-08-30T02:54:45.421Z,6.93
2022-08-30T02:57:50.482Z,6.75
2022-08-30T03:00:56.395Z,7.40
2022-08-30T03:04:26.901Z,7.40
2022-08-30T03:07:48.687Z,7.53
2022-08-30T03:10:49.574Z,7.57
2022-08-30T03:16:21.776Z,7.95
2022-08-30T03:19:08.367Z,7.55
2022-08-30T03:22:16.006Z,8.05
2022-08-30T03:25:06.022Z,7.82
2022-08-30T03:27:56.150Z,7.93
2022-08-30T03:31:02.921Z,7.95
2022-08-30T03:33:49.470Z,8.20
2022-08-30T03:36:30.000Z,8.50
2022-08-30T03:39:24.137Z,8.27
2022-08-30T03:42:01.989Z,7.50
2022-08-30T03:47:27.771Z,8.63
2022-08-30T03:49:54.701Z,7.88
2022-08-30T04:04:31.372Z,8.30
2022-08-30T04:07:03.757Z,8.32
2022-08-30T04:09:32.944Z,8.40
2022-08-30T04:12:05.315Z,8.77
2022-08-30T04:14:52.952Z,8.00
2022-08-30T04:17:52.265Z,7.38
2022-08-30T04:20:33.044Z,8.55
2022-08-30T04:23:13.249Z,8.20
2022-08-30T04:25:50.156Z,9.15
2022-08-30T04:28:41.261Z,8.60
2022-08-30T04:34:22.055Z,8.90
2022-08-30T04:37:14.482Z,8.00
2022-08-30T04:43:39.231Z,8.25
2022-08-30T04:53:30.878Z,9.55
2022-08-30T04:56:38.078Z,8.93
2022-08-30T04:59:42.622Z,9.80
2022-08-30T05:09:14.456Z,9.85
2022-08-30T05:11:59.633Z,10.27
2022-08-30T05:15:00.821Z,9.25
2022-08-30T05:17:42.634Z,8.50
2022-08-30T05:20:19.546Z,9.35
2022-08-30T05:22:57.347Z,9.00
2022-08-30T05:29:05.145Z,8.57
2022-08-30T05:32:28.682Z,8.75
2022-08-30T05:35:08.701Z,8.48
2022-08-30T05:38:11.236Z,9.20
2022-08-30T05:40:59.626Z,8.45
2022-08-30T05:43:26.854Z,8.90
2022-08-30T05:46:08.981Z,8.48
2022-08-30T05:48:35.896Z,8.90
2022-08-30T05:51:13.576Z,8.82
2022-08-30T05:53:41.394Z,8.40
2022-08-30T05:56:11.688Z,8.65
2022-08-30T05:58:38.472Z,7.95
2022-08-30T06:01:05.272Z,7.85
2022-08-30T06:03:35.005Z,8.30
2022-08-30T06:08:27.880Z,7.85
2022-08-30T06:10:54.452Z,7.55
2022-08-30T06:13:20.886Z,7.28
2022-08-30T06:15:47.412Z,8.20
2022-08-30T06:18:14.211Z,7.70
2022-08-30T06:20:47.387Z,7.45
2022-08-30T06:23:20.143Z,8.00
2022-08-30T06:25:46.568Z,6.97
2022-08-30T06:28:13.273Z,7.78
2022-08-30T06:30:41.972Z,6.97
2022-08-30T06:33:09.673Z,7.07
2022-08-30T06:35:46.827Z,7.65
2022-08-30T06:38:18.862Z,6.75
2022-08-30T06:40:45.344Z,7.15
2022-08-30T06:43:11.803Z,5.78
2022-08-30T06:45:38.188Z,6.07
2022-08-30T06:48:04.577Z,4.90
2022-08-30T06:50:31.882Z,5.43
2022-08-30T06:53:04.279Z,5.00
2022-08-30T06:55:33.170Z,4.85
2022-08-30T06:58:00.646Z,4.93
2022-08-30T07:00:27.630Z,5.15
2022-08-30T07:02:54.059Z,4.60
2022-08-30T07:05:23.477Z,4.57
2022-08-30T07:07:53.223Z,4.00
2022-08-30T07:10:21.352Z,3.58
2022-08-30T07:12:47.888Z,4.22
2022-08-30T07:15:14.804Z,3.30
2022-08-30T07:18:13.453Z,3.03
2022-08-30T07:20:40.880Z,3.80
2022-08-30T07:23:08.361Z,3.13
2022-08-30T07:25:36.679Z,3.00
2022-08-30T07:28:03.934Z,2.65
2022-08-30T07:30:31.797Z,2.97
2022-08-30T07:32:58.496Z,2.80
2022-08-30T07:35:24.905Z,2.25
2022-08-30T07:37:51.343Z,2.33
2022-08-30T07:40:17.809Z,2.35
2022-08-30T07:42:44.246Z,2.55
2022-08-30T07:45:11.760Z,3.03
2022-08-30T07:47:38.551Z,2.35
2022-08-30T07:50:06.197Z,2.22
2022-08-30T07:52:32.839Z,2.65
2022-08-30T07:55:01.304Z,2.40
2022-08-30T07:57:27.832Z,2.60
2022-08-30T07:59:54.237Z,2.33
2022-08-30T08:02:20.704Z,2.20
2022-08-30T08:04:48.467Z,2.28
2022-08-30T08:07:15.136Z,2.47
2022-08-30T08:09:41.731Z,2.20
2022-08-30T08:12:08.864Z,2.30
2022-08-30T08:14:36.302Z,2.28
2022-08-30T08:17:03.817Z,2.40
2022-08-30T08:19:30.625Z,2.10
2022-08-30T08:22:19.427Z,1.90
2022-08-30T08:24:46.747Z,2.20
2022-08-30T08:27:13.197Z,1.90
2022-08-30T08:29:39.724Z,2.30
2022-08-30T08:32:06.199Z,1.80
2022-08-30T08:34:32.661Z,2.47
2022-08-30T08:36:59.064Z,1.98
2022-08-30T08:39:25.519Z,1.90
2022-08-30T08:42:04.283Z,2.05
2022-08-30T08:44:51.052Z,2.00
2022-08-30T08:47:38.022Z,1.70
2022-08-30T08:50:11.517Z,1.92
2022-08-30T08:53:36.156Z,1.90
2022-08-30T08:56:08.881Z,1.80
2022-08-30T08:58:47.093Z,2.08
2022-08-30T09:01:16.422Z,1.88
2022-08-30T09:03:43.820Z,2.00
2022-08-30T09:06:27.688Z,1.98
2022-08-30T09:08:55.226Z,1.90
2022-08-30T09:11:26.928Z,1.90
2022-08-30T09:13:57.121Z,1.92
2022-08-30T09:17:02.992Z,2.15
2022-08-30T09:19:53.101Z,2.00
2022-08-30T09:22:35.848Z,1.80
2022-08-30T09:25:07.192Z,2.05
2022-08-30T09:27:45.261Z,2.08
2022-08-30T09:30:28.805Z,2.00
2022-08-30T09:33:03.576Z,2.15
2022-08-30T09:36:04.840Z,2.00
2022-08-30T09:38:33.429Z,1.77
2022-08-30T09:41:23.669Z,2.00
2022-08-30T09:44:18.601Z,2.20
2022-08-30T09:46:54.426Z,2.03
2022-08-30T09:49:40.431Z,2.63
2022-08-30T09:52:34.402Z,2.28
2022-08-30T09:55:10.102Z,2.17
2022-08-30T09:57:56.025Z,2.22
2022-08-30T10:00:25.418Z,2.17
2022-08-30T10:03:30.037Z,2.22
2022-08-30T10:06:07.574Z,2.15
2022-08-30T10:09:01.901Z,2.20
2022-08-30T10:11:37.504Z,2.38
2022-08-30T10:14:18.872Z,1.98
2022-08-30T10:17:07.536Z,2.42
2022-08-30T10:19:51.251Z,2.20
2022-08-30T10:22:29.737Z,2.30
2022-08-30T10:25:07.073Z,2.10
2022-08-30T10:27:42.562Z,2.17
2022-08-30T10:32:54.919Z,2.03
2022-08-30T10:35:27.916Z,2.20
2022-08-30T10:38:04.590Z,2.50
2022-08-30T10:40:55.087Z,2.10
2022-08-30T10:43:26.684Z,2.33
2022-08-30T10:45:57.167Z,2.35
2022-08-30T10:48:28.484Z,2.08
2022-08-30T10:50:57.209Z,2.15
2022-08-30T10:53:31.253Z,2.40
2022-08-30T10:56:11.000Z,2.17
2022-08-30T10:58:40.737Z,2.50
2022-08-30T11:01:28.648Z,2.05
2022-08-30T11:04:17.396Z,1.80
2022-08-30T11:06:59.245Z,1.95
2022-08-30T11:09:37.848Z,2.30
2022-08-30T11:12:36.313Z,1.92
2022-08-30T11:15:34.944Z,2.25
2022-08-30T11:18:05.569Z,2.28
2022-08-30T11:20:42.354Z,1.98
2022-08-30T11:24:11.470Z,2.05
2022-08-30T11:26:48.297Z,1.90
2022-08-30T11:29:29.945Z,2.00
2022-08-30T11:32:01.814Z,2.05
2022-08-30T11:34:46.362Z,2.20
2022-08-30T11:37:41.730Z,2.10
2022-08-30T11:40:17.271Z,2.20
2022-08-30T11:42:49.382Z,1.80
2022-08-30T11:45:22.027Z,1.90
2022-08-30T11:47:57.109Z,1.80
2022-08-30T11:50:31.217Z,1.98
2022-08-30T11:53:34.821Z,1.88
2022-08-30T11:56:13.460Z,1.80
2022-08-30T11:59:09.757Z,2.20
2022-08-30T12:01:50.019Z,1.77
2022-08-30T12:04:17.958Z,1.98
2022-08-30T12:06:51.173Z,1.92
2022-08-30T12:09:37.801Z,1.85
2022-08-30T12:12:07.081Z,2.10
2022-08-30T12:14:54.526Z,1.90
2022-08-30T12:18:17.476Z,2.20
2022-08-30T12:20:47.273Z,2.28
2022-08-30T12:23:17.818Z,1.90
2022-08-30T12:25:44.322Z,1.90
2022-08-30T12:28:14.834Z,2.20
2022-08-30T12:30:42.024Z,1.90
2022-08-30T12:33:14.445Z,1.80
2022-08-30T12:35:43.213Z,2.20
2022-08-30T12:38:19.274Z,1.92
2022-08-30T12:40:57.892Z,1.85
2022-08-30T12:43:50.327Z,2.35
2022-08-30T12:46:17.370Z,2.10
2022-08-30T12:48:44.713Z,2.13
2022-08-30T12:51:30.623Z,2.03
2022-08-30T12:54:04.255Z,2.10
2022-08-30T12:56:56.039Z,2.10
2022-08-30T12:59:54.104Z,1.85
2022-08-30T13:02:27.372Z,1.92
2022-08-30T13:07:30.379Z,2.17
2022-08-30T13:10:03.044Z,1.85
2022-08-30T13:12:29.538Z,1.85
2022-08-30T13:15:19.120Z,1.85
2022-08-30T13:17:46.903Z,2.50
2022-08-30T13:20:16.289Z,1.90
2022-08-30T13:23:04.780Z,2.00
2022-08-30T13:25:32.967Z,2.00
2022-08-30T13:28:00.576Z,2.03
2022-08-30T13:30:27.505Z,2.47
2022-08-30T13:32:53.914Z,2.40
2022-08-30T13:35:20.305Z,2.08
2022-08-30T13:37:50.425Z,2.30
2022-08-30T13:40:18.999Z,1.92
2022-08-30T13:42:45.577Z,2.03
2022-08-30T13:48:00.647Z,2.20
2022-08-30T13:50:28.524Z,2.40
2022-08-30T13:52:57.063Z,2.25
2022-08-30T13:55:23.577Z,1.90
2022-08-30T13:57:57.516Z,2.03
2022-08-30T14:00:25.217Z,2.10
2022-08-30T14:02:57.675Z,1.95
2022-08-30T14:06:04.949Z,2.00
2022-08-30T14:11:06.991Z,1.85
2022-08-30T14:13:33.778Z,2.10
2022-08-30T14:18:49.213Z,2.00
2022-08-30T14:21:16.062Z,2.05
2022-08-30T14:23:45.310Z,2.20
2022-08-30T14:26:22.975Z,2.35
2022-08-30T14:28:52.165Z,2.03
2022-08-30T14:31:19.980Z,2.20
2022-08-30T14:33:46.980Z,2.00
2022-08-30T14:36:15.565Z,2.03
2022-08-30T14:41:12.092Z,2.20
2022-08-30T14:43:40.368Z,1.92
2022-08-30T14:46:10.377Z,2.00
2022-08-30T14:48:37.840Z,2.13
2022-08-30T14:51:12.589Z,1.88
2022-08-30T14:53:39.078Z,2.47
2022-08-30T14:56:15.692Z,2.30
2022-08-30T14:58:42.313Z,2.20
2022-08-30T15:01:10.354Z,2.00
2022-08-30T15:03:39.940Z,1.98
2022-08-30T15:06:07.144Z,2.20
2022-08-30T15:08:35.188Z,2.10
2022-08-30T15:11:06.437Z,2.05
2022-08-30T15:13:33.243Z,2.30
2022-08-30T15:15:59.804Z,2.00
2022-08-30T15:18:26.261Z,1.80
2022-08-30T15:20:53.554Z,2.38
2022-08-30T15:23:22.881Z,1.83
2022-08-30T15:25:51.348Z,1.92
2022-08-30T15:28:19.102Z,2.30
2022-08-30T15:30:45.777Z,2.30
2022-08-30T15:33:12.284Z,2.00
2022-08-30T15:35:38.749Z,1.90
2022-08-30T15:38:05.152Z,1.92
2022-08-30T15:40:34.753Z,1.73
2022-08-30T15:43:04.588Z,2.10
2022-08-30T15:45:31.456Z,1.98
2022-08-30T15:48:01.518Z,2.10
2022-08-30T15:50:28.828Z,1.85
2022-08-30T15:52:56.348Z,1.83
2022-08-30T15:55:23.229Z,2.00
2022-08-30T15:57:50.067Z,1.83
2022-08-30T16:00:16.829Z,2.33
2022-08-30T16:02:43.848Z,1.98
2022-08-30T16:05:10.559Z,1.50
2022-08-30T16:07:40.670Z,1.80
2022-08-30T16:10:08.545Z,1.75
2022-08-30T16:12:35.010Z,1.98
2022-08-30T16:15:01.451Z,2.13
2022-08-30T16:17:28.487Z,1.90
2022-08-30T16:19:58.845Z,1.60
2022-08-30T16:22:26.367Z,2.13
2022-08-30T16:24:53.136Z,1.83
2022-08-30T16:27:21.197Z,1.80
2022-08-30T16:29:48.005Z,1.77
2022-08-30T16:32:16.987Z,1.92
2022-08-30T16:34:43.410Z,1.90
2022-08-30T16:37:09.819Z,1.70
2022-08-30T16:39:36.479Z,1.77
2022-08-30T16:42:03.294Z,1.70
2022-08-30T16:44:30.722Z,2.60
2022-08-30T16:46:57.456Z,2.05
2022-08-30T16:49:24.883Z,7.57
2022-08-30T16:51:52.585Z,5.32
2022-08-30T16:54:19.753Z,2.53
2022-08-30T16:56:46.246Z,2.53
2022-08-30T16:59:13.625Z,2.00
2022-08-30T17:01:42.338Z,1.90
2022-08-30T17:04:09.985Z,1.70
2022-08-30T17:06:36.532Z,1.90
2022-08-30T17:09:05.356Z,1.80
2022-08-30T17:11:32.807Z,1.73
2022-08-30T17:13:59.225Z,1.80
2022-08-30T17:16:28.162Z,1.50
2022-08-30T17:18:59.706Z,2.10
2022-08-30T17:21:27.290Z,2.13
2022-08-30T17:23:53.752Z,1.90
2022-08-30T17:26:24.937Z,1.77
2022-08-30T17:28:52.908Z,1.80
2022-08-30T17:31:19.358Z,1.70
2022-08-30T17:33:46.592Z,1.98
2022-08-30T17:36:13.016Z,2.00
2022-08-30T17:38:44.876Z,1.73
2022-08-30T17:41:12.505Z,1.70
2022-08-30T17:43:39.135Z,1.80
2022-08-30T17:46:06.968Z,1.75
2022-08-30T17:48:33.741Z,1.90
2022-08-30T17:51:00.260Z,2.30
2022-08-30T17:53:26.757Z,1.60
2022-08-30T17:55:53.204Z,1.70
2022-08-30T17:58:19.721Z,1.65
2022-08-30T18:00:48.352Z,1.80
2022-08-30T18:03:17.344Z,1.85
2022-08-30T18:05:46.986Z,2.20
2022-08-30T18:08:13.788Z,1.80
2022-08-30T18:10:40.326Z,1.60
2022-08-30T18:13:06.747Z,1.70
2022-08-30T18:15:33.829Z,2.00
2022-08-30T18:18:00.229Z,1.60
2022-08-30T18:20:26.635Z,1.63
2022-08-30T18:22:53.270Z,1.73
2022-08-30T18:25:19.752Z,1.85
2022-08-30T18:27:58.089Z,1.70
2022-08-30T18:30:31.212Z,1.90
2022-08-30T18:33:00.561Z,1.80
2022-08-30T18:35:27.389Z,2.00
2022-08-30T18:37:54.091Z,2.60
2022-08-30T18:40:20.741Z,1.77
2022-08-30T18:42:47.497Z,1.70
2022-08-30T18:45:14.886Z,1.88
2022-08-30T18:47:41.648Z,1.85
2022-08-30T18:50:08.365Z,1.92
2022-08-30T18:52:35.239Z,1.85
2022-08-30T18:55:02.299Z,1.92
2022-08-30T18:57:28.710Z,1.90
2022-08-30T18:59:57.621Z,1.80
2022-08-30T19:02:27.552Z,2.00
2022-08-30T19:04:54.399Z,1.85
2022-08-30T19:07:21.440Z,2.00
2022-08-30T19:09:53.524Z,1.85
2022-08-30T19:12:20.210Z,1.92
2022-08-30T19:14:47.457Z,2.00
2022-08-30T19:17:14.081Z,1.92
2022-08-30T19:19:49.289Z,2.10
2022-08-30T19:22:20.876Z,2.17
2022-08-30T19:24:49.699Z,2.10
2022-08-30T19:27:18.977Z,2.50
2022-08-30T19:29:48.201Z,2.03
2022-08-30T19:32:20.112Z,2.17
2022-08-30T19:34:46.538Z,2.67
2022-08-30T19:37:14.751Z,2.00
2022-08-30T19:39:45.004Z,1.90
2022-08-30T19:42:13.521Z,2.33
2022-08-30T19:44:39.919Z,2.15
2022-08-30T19:47:06.526Z,2.22
2022-08-30T19:49:33.916Z,2.17
2022-08-30T19:52:00.416Z,2.20
2022-08-30T19:54:26.893Z,2.10
2022-08-30T19:56:53.305Z,2.38
2022-08-30T19:59:19.799Z,2.60
2022-08-30T20:01:46.733Z,2.60
2022-08-30T20:04:14.230Z,2.58
2022-08-30T20:06:41.904Z,2.08
2022-08-30T20:18:33.942Z,3.13
2022-08-30T20:21:13.231Z,2.85
2022-08-30T20:23:43.417Z,3.17
2022-08-30T20:26:10.497Z,2.88
2022-08-30T20:28:58.713Z,2.63
2022-08-30T20:31:31.446Z,3.10
2022-08-30T20:34:02.650Z,3.60
2022-08-30T20:36:33.613Z,3.20
2022-08-30T20:39:18.644Z,2.80
2022-08-30T20:41:54.892Z,3.03
2022-08-30T20:44:37.105Z,3.17
2022-08-30T20:47:15.300Z,3.30
2022-08-30T20:49:45.165Z,3.42
2022-08-30T20:52:11.691Z,3.00
2022-08-30T20:54:43.320Z,3.10
2022-08-30T20:57:20.228Z,3.05
2022-08-30T20:59:49.206Z,2.90
2022-08-30T21:02:15.826Z,3.20
2022-08-30T21:04:42.642Z,3.28
2022-08-30T21:07:09.297Z,2.47
2022-08-30T21:09:38.127Z,3.13
2022-08-30T21:12:05.138Z,3.00
2022-08-30T21:14:32.294Z,3.17
2022-08-30T21:16:58.761Z,2.67
2022-08-30T21:19:25.325Z,2.70
2022-08-30T21:21:51.999Z,2.78
2022-08-30T21:24:18.660Z,2.60
2022-08-30T21:26:45.209Z,2.65
2022-08-30T21:29:11.975Z,2.42
2022-08-30T21:31:38.497Z,2.50
2022-08-30T21:34:05.063Z,2.40
2022-08-30T21:36:46.583Z,2.40
2022-08-30T21:41:47.965Z,2.38
2022-08-30T21:44:18.138Z,2.50
2022-08-30T21:46:45.607Z,2.58
2022-08-30T21:49:13.396Z,2.10
2022-08-30T21:51:44.476Z,2.10
2022-08-30T21:54:11.677Z,2.20
2022-08-30T21:56:40.324Z,2.05
2022-08-30T21:59:07.730Z,2.20
2022-08-30T22:01:34.828Z,2.00
2022-08-30T22:04:05.904Z,2.17
2022-08-30T22:06:34.151Z,1.90
2022-08-30T22:09:02.404Z,2.00
2022-08-30T22:11:30.292Z,2.10
2022-08-30T22:13:57.136Z,2.30
2022-08-30T22:16:25.428Z,2.10
2022-08-30T22:18:52.017Z,2.38
2022-08-30T22:21:21.617Z,2.03
2022-08-30T22:26:16.347Z,1.98
2022-08-30T22:28:42.760Z,2.00
2022-08-30T22:31:11.048Z,1.90
2022-08-30T22:33:37.709Z,1.90
2022-08-30T22:36:08.245Z,1.90
2022-08-30T22:38:34.706Z,2.20
2022-08-30T22:41:01.152Z,2.08
2022-08-30T22:43:27.551Z,2.00
2022-08-30T22:45:54.373Z,2.00
2022-08-30T22:48:20.801Z,2.25
2022-08-30T22:50:47.606Z,2.20
2022-08-30T22:53:14.038Z,2.15
2022-08-30T22:55:41.088Z,2.15
2022-08-30T22:58:07.505Z,2.22
2022-08-30T23:00:33.941Z,2.40
2022-08-30T23:03:00.579Z,2.17
2022-08-30T23:05:26.988Z,2.05
2022-08-30T23:07:53.384Z,2.03
2022-08-30T23:10:19.846Z,2.08
2022-08-30T23:12:46.354Z,1.80
2022-08-30T23:15:15.378Z,2.15
2022-08-30T23:17:41.853Z,2.00
2022-08-30T23:20:08.665Z,2.17
2022-08-30T23:22:35.125Z,2.00
2022-08-30T23:25:20.194Z,1.83
2022-08-30T23:28:05.191Z,2.20
2022-08-30T23:30:50.423Z,1.88
2022-08-30T23:33:35.700Z,2.20
2022-08-30T23:36:33.006Z,2.03
2022-08-30T23:39:17.924Z,1.80
2022-08-30T23:42:03.005Z,2.00
2022-08-30T23:44:48.030Z,1.90
2022-08-30T23:47:33.212Z,1.77
2022-08-30T23:50:18.377Z,2.10
2022-08-30T23:53:03.384Z,2.15
2022-08-30T23:55:48.219Z,1.70
2022-08-30T23:58:32.867Z,2.00
